sensor_id;sensor_type;location;lat;lon;timestamp;pressure;altitude;pressure_sealevel;temperature;humidity
141;BME280;65;48.778;9.160;2023-07-09T00:01:35;98787.59;;;23.02;60.74
141;BME280;65;48.778;9.160;2023-07-09T00:04:22;98784.91;;;23.02;60.37
141;BME280;65;48.778;9.160;2023-07-09T00:07:32;98788.78;;;23.00;60.60
141;BME280;65;48.778;9.160;2023-07-09T00:10:20;98786.72;;;22.94;60.69
141;BME280;65;48.778;9.160;2023-07-09T00:13:07;98783.13;;;22.85;61.22
141;BME280;65;48.778;9.160;2023-07-09T00:15:58;98784.75;;;22.78;60.96
141;BME280;65;48.778;9.160;2023-07-09T00:18:45;98783.69;;;22.71;62.75
141;BME280;65;48.778;9.160;2023-07-09T00:21:31;98785.88;;;22.67;61.64
141;BME280;65;48.778;9.160;2023-07-09T00:24:19;98790.41;;;22.67;61.74
141;BME280;65;48.778;9.160;2023-07-09T00:27:09;98788.56;;;22.67;61.19
141;BME280;65;48.778;9.160;2023-07-09T00:29:54;98791.41;;;22.66;61.47
141;BME280;65;48.778;9.160;2023-07-09T00:32:40;98792.06;;;22.60;61.54
141;BME280;65;48.778;9.160;2023-07-09T00:35:28;98797.19;;;22.53;62.24
141;BME280;65;48.778;9.160;2023-07-09T00:38:22;98796.97;;;22.47;62.14
141;BME280;65;48.778;9.160;2023-07-09T00:41:18;98797.47;;;22.42;63.04
141;BME280;65;48.778;9.160;2023-07-09T00:56:08;98790.00;;;22.36;63.62
141;BME280;65;48.778;9.160;2023-07-09T00:58:57;98810.88;;;22.34;64.11
141;BME280;65;48.778;9.160;2023-07-09T01:01:45;98808.47;;;22.31;64.77
141;BME280;65;48.778;9.160;2023-07-09T01:04:35;98811.66;;;22.26;65.42
141;BME280;65;48.778;9.160;2023-07-09T01:07:21;98800.66;;;22.20;64.97
141;BME280;65;48.778;9.160;2023-07-09T01:10:07;98815.44;;;22.16;66.24
141;BME280;65;48.778;9.160;2023-07-09T01:12:53;98812.34;;;22.11;66.35
141;BME280;65;48.778;9.160;2023-07-09T01:15:40;98807.44;;;22.06;66.72
141;BME280;65;48.778;9.160;2023-07-09T01:18:26;98809.56;;;22.02;66.77
141;BME280;65;48.778;9.160;2023-07-09T01:21:12;98815.81;;;22.03;66.72
141;BME280;65;48.778;9.160;2023-07-09T01:27:31;98815.25;;;21.99;67.84
141;BME280;65;48.778;9.160;2023-07-09T01:33:39;98819.38;;;21.94;69.37
141;BME280;65;48.778;9.160;2023-07-09T01:36:25;98809.22;;;21.88;69.00
141;BME280;65;48.778;9.160;2023-07-09T01:39:11;98799.75;;;21.84;69.17
141;BME280;65;48.778;9.160;2023-07-09T01:41:56;98803.44;;;21.83;69.64
141;BME280;65;48.778;9.160;2023-07-09T01:44:45;98808.00;;;21.82;70.70
141;BME280;65;48.778;9.160;2023-07-09T01:47:31;98802.06;;;21.78;70.63
141;BME280;65;48.778;9.160;2023-07-09T01:50:17;98804.22;;;21.75;70.43
141;BME280;65;48.778;9.160;2023-07-09T01:53:03;98796.59;;;21.70;71.22
141;BME280;65;48.778;9.160;2023-07-09T01:55:50;98814.06;;;21.66;71.26
141;BME280;65;48.778;9.160;2023-07-09T01:58:37;98806.97;;;21.65;71.20
141;BME280;65;48.778;9.160;2023-07-09T02:01:29;98815.34;;;21.62;71.26
141;BME280;65;48.778;9.160;2023-07-09T02:04:14;98811.97;;;21.60;70.95
141;BME280;65;48.778;9.160;2023-07-09T02:07:00;98820.03;;;21.60;71.24
141;BME280;65;48.778;9.160;2023-07-09T02:09:46;98811.28;;;21.58;71.43
141;BME280;65;48.778;9.160;2023-07-09T02:12:32;98812.56;;;21.54;70.99
141;BME280;65;48.778;9.160;2023-07-09T02:15:18;98814.72;;;21.51;71.38
141;BME280;65;48.778;9.160;2023-07-09T02:18:03;98817.16;;;21.44;71.48
141;BME280;65;48.778;9.160;2023-07-09T02:20:49;98817.47;;;21.41;71.38
141;BME280;65;48.778;9.160;2023-07-09T02:23:35;98817.63;;;21.39;72.14
141;BME280;65;48.778;9.160;2023-07-09T02:26:20;98816.88;;;21.37;72.28
141;BME280;65;48.778;9.160;2023-07-09T02:29:06;98814.50;;;21.34;72.73
141;BME280;65;48.778;9.160;2023-07-09T02:31:55;98811.13;;;21.32;71.79
141;BME280;65;48.778;9.160;2023-07-09T02:34:41;98823.88;;;21.30;71.74
141;BME280;65;48.778;9.160;2023-07-09T02:37:26;98821.31;;;21.29;71.36
141;BME280;65;48.778;9.160;2023-07-09T02:40:13;98825.31;;;21.25;72.58
141;BME280;65;48.778;9.160;2023-07-09T02:42:59;98819.09;;;21.24;73.48
141;BME280;65;48.778;9.160;2023-07-09T02:45:44;98814.97;;;21.20;73.26
141;BME280;65;48.778;9.160;2023-07-09T02:48:30;98827.56;;;21.20;73.26
141;BME280;65;48.778;9.160;2023-07-09T02:51:16;98834.09;;;21.17;72.94
141;BME280;65;48.778;9.160;2023-07-09T02:54:03;98835.22;;;21.14;72.82
141;BME280;65;48.778;9.160;2023-07-09T02:56:49;98838.91;;;21.13;72.95
141;BME280;65;48.778;9.160;2023-07-09T02:59:35;98839.22;;;21.10;73.71
141;BME280;65;48.778;9.160;2023-07-09T03:02:20;98838.50;;;21.08;75.02
141;BME280;65;48.778;9.160;2023-07-09T03:05:06;98836.81;;;21.07;74.39
141;BME280;65;48.778;9.160;2023-07-09T03:07:52;98844.59;;;21.10;73.03
141;BME280;65;48.778;9.160;2023-07-09T03:10:38;98839.22;;;21.10;73.71
141;BME280;65;48.778;9.160;2023-07-09T03:13:24;98840.50;;;21.06;73.86
141;BME280;65;48.778;9.160;2023-07-09T03:16:10;98843.47;;;21.03;74.31
141;BME280;65;48.778;9.160;2023-07-09T03:18:56;98850.00;;;21.01;74.08
141;BME280;65;48.778;9.160;2023-07-09T03:21:42;98847.75;;;20.96;74.41
141;BME280;65;48.778;9.160;2023-07-09T03:24:27;98843.50;;;20.94;74.18
141;BME280;65;48.778;9.160;2023-07-09T03:27:13;98847.50;;;20.90;75.29
141;BME280;65;48.778;9.160;2023-07-09T03:29:59;98838.03;;;20.86;74.15
141;BME280;65;48.778;9.160;2023-07-09T03:32:45;98838.59;;;20.89;74.24
141;BME280;65;48.778;9.160;2023-07-09T03:35:31;98841.25;;;20.89;74.17
141;BME280;65;48.778;9.160;2023-07-09T03:38:18;98840.56;;;20.87;74.03
141;BME280;65;48.778;9.160;2023-07-09T03:41:05;98843.22;;;20.97;74.71
141;BME280;65;48.778;9.160;2023-07-09T03:43:51;98848.59;;;20.97;74.47
141;BME280;65;48.778;9.160;2023-07-09T03:46:38;98844.66;;;20.91;75.24
141;BME280;65;48.778;9.160;2023-07-09T03:49:24;98851.47;;;20.86;75.59
141;BME280;65;48.778;9.160;2023-07-09T03:52:10;98853.72;;;20.80;75.32
141;BME280;65;48.778;9.160;2023-07-09T03:54:55;98857.53;;;20.78;75.33
141;BME280;65;48.778;9.160;2023-07-09T03:57:42;98857.53;;;20.78;75.84
141;BME280;65;48.778;9.160;2023-07-09T04:00:27;98862.66;;;20.81;75.82
141;BME280;65;48.778;9.160;2023-07-09T04:03:13;98862.22;;;20.86;73.92
141;BME280;65;48.778;9.160;2023-07-09T04:05:59;98869.84;;;20.90;74.14
141;BME280;65;48.778;9.160;2023-07-09T04:08:45;98867.16;;;20.90;75.34
141;BME280;65;48.778;9.160;2023-07-09T04:11:31;98872.22;;;20.93;74.68
141;BME280;65;48.778;9.160;2023-07-09T04:14:16;98866.56;;;20.96;74.01
141;BME280;65;48.778;9.160;2023-07-09T04:17:02;98862.88;;;20.97;73.44
141;BME280;65;48.778;9.160;2023-07-09T04:19:50;98868.97;;;20.99;74.49
141;BME280;65;48.778;9.160;2023-07-09T04:22:37;98868.66;;;21.02;74.04
141;BME280;65;48.778;9.160;2023-07-09T04:25:23;98858.72;;;21.12;73.64
141;BME280;65;48.778;9.160;2023-07-09T04:28:08;98862.81;;;21.26;73.16
141;BME280;65;48.778;9.160;2023-07-09T04:30:54;98863.06;;;21.33;72.51
141;BME280;65;48.778;9.160;2023-07-09T04:33:40;98866.88;;;21.40;71.89
141;BME280;65;48.778;9.160;2023-07-09T04:36:25;98866.28;;;21.46;73.25
141;BME280;65;48.778;9.160;2023-07-09T04:39:11;98865.38;;;21.55;72.11
141;BME280;65;48.778;9.160;2023-07-09T04:41:57;98873.25;;;21.66;71.63
141;BME280;65;48.778;9.160;2023-07-09T04:44:44;98874.72;;;21.78;70.59
141;BME280;65;48.778;9.160;2023-07-09T04:47:30;98868.25;;;21.99;69.51
141;BME280;65;48.778;9.160;2023-07-09T04:50:16;98867.81;;;22.21;67.52
141;BME280;65;48.778;9.160;2023-07-09T04:53:02;98867.81;;;22.39;67.02
141;BME280;65;48.778;9.160;2023-07-09T04:55:47;98874.22;;;22.56;67.67
141;BME280;65;48.778;9.160;2023-07-09T04:58:34;98878.66;;;22.65;66.68
141;BME280;65;48.778;9.160;2023-07-09T05:01:20;98876.91;;;22.99;64.35
141;BME280;65;48.778;9.160;2023-07-09T05:04:06;98880.72;;;23.15;63.22
141;BME280;65;48.778;9.160;2023-07-09T05:06:52;98878.47;;;23.36;62.27
141;BME280;65;48.778;9.160;2023-07-09T05:09:37;98890.44;;;23.67;61.64
141;BME280;65;48.778;9.160;2023-07-09T05:12:26;98874.41;;;24.16;59.52
141;BME280;65;48.778;9.160;2023-07-09T05:15:12;98887.50;;;24.86;58.79
141;BME280;65;48.778;9.160;2023-07-09T05:17:58;98879.28;;;25.43;55.42
141;BME280;65;48.778;9.160;2023-07-09T05:20:45;98887.19;;;25.61;54.05
141;BME280;65;48.778;9.160;2023-07-09T05:23:31;98884.94;;;26.42;51.21
141;BME280;65;48.778;9.160;2023-07-09T05:26:17;98882.78;;;27.21;48.24
141;BME280;65;48.778;9.160;2023-07-09T05:29:03;98887.25;;;27.44;47.48
141;BME280;65;48.778;9.160;2023-07-09T05:31:50;98881.75;;;28.17;45.81
141;BME280;65;48.778;9.160;2023-07-09T05:34:36;98879.81;;;28.69;44.45
141;BME280;65;48.778;9.160;2023-07-09T05:37:21;98884.94;;;28.21;44.38
141;BME280;65;48.778;9.160;2023-07-09T05:40:08;98877.50;;;29.15;43.03
141;BME280;65;48.778;9.160;2023-07-09T05:42:54;98877.81;;;28.99;44.52
141;BME280;65;48.778;9.160;2023-07-09T05:45:40;98883.47;;;29.59;41.01
141;BME280;65;48.778;9.160;2023-07-09T05:48:26;98889.03;;;30.27;41.25
141;BME280;65;48.778;9.160;2023-07-09T05:51:11;98885.59;;;31.26;38.71
141;BME280;65;48.778;9.160;2023-07-09T05:53:57;98888.31;;;31.39;38.72
141;BME280;65;48.778;9.160;2023-07-09T05:56:43;98883.88;;;31.51;39.02
141;BME280;65;48.778;9.160;2023-07-09T05:59:29;98890.63;;;31.42;38.55
141;BME280;65;48.778;9.160;2023-07-09T06:02:17;98885.16;;;31.42;37.65
141;BME280;65;48.778;9.160;2023-07-09T06:05:04;98883.53;;;32.44;35.84
141;BME280;65;48.778;9.160;2023-07-09T06:07:49;98894.94;;;33.04;33.97
141;BME280;65;48.778;9.160;2023-07-09T06:10:35;98884.59;;;32.74;34.31
141;BME280;65;48.778;9.160;2023-07-09T06:13:21;98895.06;;;33.58;33.12
141;BME280;65;48.778;9.160;2023-07-09T06:16:07;98886.03;;;33.51;33.85
141;BME280;65;48.778;9.160;2023-07-09T06:18:53;98889.41;;;34.08;32.65
141;BME280;65;48.778;9.160;2023-07-09T06:21:39;98887.03;;;34.30;32.45
141;BME280;65;48.778;9.160;2023-07-09T06:24:25;98898.59;;;34.50;32.57
141;BME280;65;48.778;9.160;2023-07-09T06:27:11;98893.53;;;34.36;32.07
141;BME280;65;48.778;9.160;2023-07-09T06:29:56;98895.16;;;35.20;30.62
141;BME280;65;48.778;9.160;2023-07-09T06:32:42;98902.38;;;35.44;30.38
141;BME280;65;48.778;9.160;2023-07-09T06:35:28;98893.59;;;34.89;31.40
141;BME280;65;48.778;9.160;2023-07-09T06:38:13;98884.94;;;35.39;29.97
141;BME280;65;48.778;9.160;2023-07-09T06:40:59;98894.50;;;35.36;30.85
141;BME280;65;48.778;9.160;2023-07-09T06:43:45;98890.25;;;35.22;30.81
141;BME280;65;48.778;9.160;2023-07-09T06:46:31;98895.81;;;35.45;30.58
141;BME280;65;48.778;9.160;2023-07-09T06:49:17;98891.28;;;35.39;29.96
141;BME280;65;48.778;9.160;2023-07-09T06:52:02;98895.63;;;35.75;29.54
141;BME280;65;48.778;9.160;2023-07-09T06:54:48;98891.28;;;36.71;28.12
141;BME280;65;48.778;9.160;2023-07-09T06:57:34;98893.38;;;36.64;28.88
141;BME280;65;48.778;9.160;2023-07-09T07:00:20;98903.63;;;37.31;27.40
141;BME280;65;48.778;9.160;2023-07-09T07:03:06;98903.94;;;36.56;28.17
141;BME280;65;48.778;9.160;2023-07-09T07:05:53;98890.50;;;37.21;28.03
141;BME280;65;48.778;9.160;2023-07-09T07:08:39;98894.41;;;36.92;28.14
141;BME280;65;48.778;9.160;2023-07-09T07:11:24;98894.91;;;36.89;28.83
141;BME280;65;48.778;9.160;2023-07-09T07:14:15;98888.91;;;38.19;26.31
141;BME280;65;48.778;9.160;2023-07-09T07:17:01;98880.03;;;38.17;26.15
141;BME280;65;48.778;9.160;2023-07-09T07:19:49;98885.41;;;37.85;27.17
141;BME280;65;48.778;9.160;2023-07-09T07:22:36;98890.38;;;38.27;26.17
141;BME280;65;48.778;9.160;2023-07-09T07:25:22;98882.19;;;38.15;26.68
141;BME280;65;48.778;9.160;2023-07-09T07:28:08;98883.81;;;38.87;24.96
141;BME280;65;48.778;9.160;2023-07-09T07:31:00;98885.00;;;38.42;26.27
141;BME280;65;48.778;9.160;2023-07-09T07:33:46;98881.31;;;39.17;24.88
141;BME280;65;48.778;9.160;2023-07-09T07:36:32;98880.13;;;39.45;24.05
141;BME280;65;48.778;9.160;2023-07-09T07:39:18;98882.88;;;39.40;24.60
141;BME280;65;48.778;9.160;2023-07-09T07:42:04;98882.00;;;39.03;25.86
141;BME280;65;48.778;9.160;2023-07-09T07:44:50;98877.91;;;39.47;25.14
141;BME280;65;48.778;9.160;2023-07-09T07:47:35;98879.91;;;38.83;25.59
141;BME280;65;48.778;9.160;2023-07-09T07:50:21;98872.38;;;39.47;24.46
141;BME280;65;48.778;9.160;2023-07-09T07:53:08;98870.72;;;39.09;25.45
141;BME280;65;48.778;9.160;2023-07-09T07:55:55;98870.56;;;39.26;25.09
141;BME280;65;48.778;9.160;2023-07-09T07:58:40;98869.44;;;39.22;24.58
141;BME280;65;48.778;9.160;2023-07-09T08:01:26;98861.47;;;40.45;23.27
141;BME280;65;48.778;9.160;2023-07-09T08:04:12;98866.97;;;40.25;23.65
141;BME280;65;48.778;9.160;2023-07-09T08:06:58;98861.81;;;41.41;21.85
141;BME280;65;48.778;9.160;2023-07-09T08:09:45;98858.78;;;41.27;21.67
141;BME280;65;48.778;9.160;2023-07-09T08:12:31;98872.97;;;39.97;23.56
141;BME280;65;48.778;9.160;2023-07-09T08:15:17;98862.03;;;40.37;23.50
141;BME280;65;48.778;9.160;2023-07-09T08:18:03;98855.94;;;40.45;23.08
141;BME280;65;48.778;9.160;2023-07-09T08:20:49;98855.44;;;40.54;23.52
141;BME280;65;48.778;9.160;2023-07-09T08:23:35;98857.69;;;41.28;22.25
141;BME280;65;48.778;9.160;2023-07-09T08:26:20;98861.28;;;41.33;22.11
141;BME280;65;48.778;9.160;2023-07-09T08:29:06;98854.63;;;41.29;22.59
141;BME280;65;48.778;9.160;2023-07-09T08:31:52;98851.84;;;41.24;21.05
141;BME280;65;48.778;9.160;2023-07-09T08:34:39;98850.09;;;41.54;20.76
141;BME280;65;48.778;9.160;2023-07-09T08:37:25;98848.97;;;42.35;21.10
141;BME280;65;48.778;9.160;2023-07-09T08:40:13;98856.44;;;42.83;19.91
141;BME280;65;48.778;9.160;2023-07-09T08:43:16;98850.72;;;42.25;20.42
141;BME280;65;48.778;9.160;2023-07-09T08:46:13;98841.88;;;42.03;20.82
141;BME280;65;48.778;9.160;2023-07-09T08:49:06;98845.03;;;43.14;19.66
141;BME280;65;48.778;9.160;2023-07-09T08:51:59;98847.31;;;42.34;20.47
141;BME280;65;48.778;9.160;2023-07-09T08:58:31;98848.16;;;43.41;19.18
141;BME280;65;48.778;9.160;2023-07-09T09:01:22;98849.28;;;42.33;20.33
141;BME280;65;48.778;9.160;2023-07-09T09:04:25;98851.72;;;42.84;19.84
141;BME280;65;48.778;9.160;2023-07-09T09:07:34;98855.72;;;43.60;19.51
141;BME280;65;48.778;9.160;2023-07-09T09:10:54;98853.91;;;43.50;19.20
141;BME280;65;48.778;9.160;2023-07-09T09:13:42;98850.03;;;41.84;20.73
141;BME280;65;48.778;9.160;2023-07-09T09:16:36;98853.44;;;43.43;19.89
141;BME280;65;48.778;9.160;2023-07-09T09:22:16;98850.09;;;43.89;19.02
141;BME280;65;48.778;9.160;2023-07-09T09:28:12;98855.47;;;44.09;19.19
141;BME280;65;48.778;9.160;2023-07-09T09:30:59;98845.53;;;42.53;20.47
141;BME280;65;48.778;9.160;2023-07-09T09:33:47;98853.72;;;44.13;18.81
141;BME280;65;48.778;9.160;2023-07-09T09:36:36;98844.00;;;44.29;18.80
141;BME280;65;48.778;9.160;2023-07-09T09:39:26;98845.13;;;42.70;18.72
141;BME280;65;48.778;9.160;2023-07-09T09:42:12;98845.38;;;44.13;17.95
141;BME280;65;48.778;9.160;2023-07-09T09:44:58;98847.59;;;45.65;16.11
141;BME280;65;48.778;9.160;2023-07-09T09:47:45;98847.44;;;44.02;18.31
141;BME280;65;48.778;9.160;2023-07-09T09:50:32;98858.81;;;45.00;16.65
141;BME280;65;48.778;9.160;2023-07-09T09:53:23;98843.69;;;45.80;16.13
141;BME280;65;48.778;9.160;2023-07-09T09:56:33;98848.81;;;45.31;16.03
141;BME280;65;48.778;9.160;2023-07-09T09:59:23;98830.09;;;44.99;15.98
141;BME280;65;48.778;9.160;2023-07-09T10:02:21;98818.50;;;45.25;16.02
141;BME280;65;48.778;9.160;2023-07-09T10:05:12;98823.06;;;45.48;15.83
141;BME280;65;48.778;9.160;2023-07-09T10:11:08;98822.34;;;43.02;14.95
141;BME280;65;48.778;9.160;2023-07-09T10:14:00;98823.06;;;44.69;14.09
141;BME280;65;48.778;9.160;2023-07-09T10:16:52;98819.94;;;44.90;13.43
141;BME280;65;48.778;9.160;2023-07-09T10:20:01;98815.56;;;45.16;13.50
141;BME280;65;48.778;9.160;2023-07-09T10:22:55;98809.38;;;45.19;13.59
141;BME280;65;48.778;9.160;2023-07-09T10:32:29;98812.22;;;44.68;14.36
141;BME280;65;48.778;9.160;2023-07-09T10:41:11;98791.94;;;45.82;13.16
141;BME280;65;48.778;9.160;2023-07-09T10:44:20;98793.03;;;46.09;13.70
141;BME280;65;48.778;9.160;2023-07-09T10:47:24;98796.38;;;45.42;13.51
141;BME280;65;48.778;9.160;2023-07-09T10:50:15;98785.53;;;46.76;12.19
141;BME280;65;48.778;9.160;2023-07-09T10:53:32;98780.22;;;47.19;12.63
141;BME280;65;48.778;9.160;2023-07-09T10:56:24;98770.63;;;47.12;12.22
141;BME280;65;48.778;9.160;2023-07-09T10:59:31;98782.69;;;46.45;12.46
141;BME280;65;48.778;9.160;2023-07-09T11:02:33;98775.63;;;46.48;12.10
141;BME280;65;48.778;9.160;2023-07-09T11:05:20;98769.88;;;46.30;12.24
141;BME280;65;48.778;9.160;2023-07-09T11:08:13;98766.66;;;46.01;12.25
141;BME280;65;48.778;9.160;2023-07-09T11:11:03;98770.22;;;46.51;11.74
141;BME280;65;48.778;9.160;2023-07-09T11:13:56;98762.56;;;45.30;12.63
141;BME280;65;48.778;9.160;2023-07-09T11:16:46;98767.19;;;42.46;14.38
141;BME280;65;48.778;9.160;2023-07-09T11:19:32;98756.00;;;44.74;13.33
141;BME280;65;48.778;9.160;2023-07-09T11:22:22;98766.75;;;45.14;12.67
141;BME280;65;48.778;9.160;2023-07-09T11:25:14;98764.28;;;45.67;11.73
141;BME280;65;48.778;9.160;2023-07-09T11:28:05;98763.59;;;46.92;11.47
141;BME280;65;48.778;9.160;2023-07-09T11:31:06;98760.94;;;46.06;10.43
141;BME280;65;48.778;9.160;2023-07-09T11:34:03;98748.63;;;45.93;11.17
141;BME280;65;48.778;9.160;2023-07-09T11:36:59;98762.22;;;44.71;12.55
141;BME280;65;48.778;9.160;2023-07-09T11:39:47;98756.66;;;44.34;12.04
141;BME280;65;48.778;9.160;2023-07-09T11:42:47;98759.50;;;43.91;11.55
141;BME280;65;48.778;9.160;2023-07-09T11:45:34;98757.81;;;45.72;10.10
141;BME280;65;48.778;9.160;2023-07-09T11:48:29;98746.59;;;44.70;10.25
141;BME280;65;48.778;9.160;2023-07-09T11:51:30;98754.66;;;45.18;10.48
141;BME280;65;48.778;9.160;2023-07-09T11:54:20;98753.44;;;45.38;10.91
141;BME280;65;48.778;9.160;2023-07-09T11:57:11;98747.66;;;44.23;11.17
141;BME280;65;48.778;9.160;2023-07-09T11:59:59;98743.25;;;45.01;11.67
141;BME280;65;48.778;9.160;2023-07-09T12:02:46;98736.47;;;45.76;11.07
141;BME280;65;48.778;9.160;2023-07-09T12:05:32;98736.81;;;45.96;10.53
141;BME280;65;48.778;9.160;2023-07-09T12:08:42;98738.41;;;45.06;10.91
141;BME280;65;48.778;9.160;2023-07-09T12:11:32;98745.69;;;43.62;11.94
141;BME280;65;48.778;9.160;2023-07-09T12:14:20;98730.75;;;43.05;11.46
141;BME280;65;48.778;9.160;2023-07-09T12:17:08;98725.81;;;41.95;12.28
141;BME280;65;48.778;9.160;2023-07-09T12:19:54;98728.28;;;42.41;12.62
141;BME280;65;48.778;9.160;2023-07-09T12:22:40;98728.91;;;41.34;13.42
141;BME280;65;48.778;9.160;2023-07-09T12:25:29;98718.66;;;41.19;13.16
141;BME280;65;48.778;9.160;2023-07-09T12:28:16;98722.91;;;42.88;12.63
141;BME280;65;48.778;9.160;2023-07-09T12:31:02;98722.72;;;43.04;13.25
141;BME280;65;48.778;9.160;2023-07-09T12:33:49;98716.31;;;42.74;13.11
141;BME280;65;48.778;9.160;2023-07-09T12:36:43;98715.63;;;42.92;12.94
141;BME280;65;48.778;9.160;2023-07-09T12:39:32;98711.50;;;42.56;13.50
141;BME280;65;48.778;9.160;2023-07-09T12:42:30;98701.31;;;42.46;13.22
141;BME280;65;48.778;9.160;2023-07-09T12:45:20;98697.56;;;41.83;14.18
141;BME280;65;48.778;9.160;2023-07-09T12:48:08;98696.78;;;41.02;14.92
141;BME280;65;48.778;9.160;2023-07-09T12:50:58;98689.84;;;41.10;15.41
141;BME280;65;48.778;9.160;2023-07-09T12:53:44;98691.00;;;41.58;14.26
141;BME280;65;48.778;9.160;2023-07-09T12:56:30;98685.25;;;40.50;14.59
141;BME280;65;48.778;9.160;2023-07-09T13:02:22;98661.56;;;42.46;13.54
141;BME280;65;48.778;9.160;2023-07-09T13:05:27;98668.94;;;42.84;13.52
141;BME280;65;48.778;9.160;2023-07-09T13:08:13;98676.59;;;42.00;14.86
141;BME280;65;48.778;9.160;2023-07-09T13:11:00;98662.94;;;41.70;15.57
141;BME280;65;48.778;9.160;2023-07-09T13:13:57;98655.91;;;41.83;15.46
141;BME280;65;48.778;9.160;2023-07-09T13:16:44;98657.19;;;40.76;15.94
141;BME280;65;48.778;9.160;2023-07-09T13:19:29;98646.47;;;41.34;15.62
141;BME280;65;48.778;9.160;2023-07-09T13:22:17;98641.44;;;41.42;15.55
141;BME280;65;48.778;9.160;2023-07-09T13:25:04;98636.72;;;40.27;16.34
141;BME280;65;48.778;9.160;2023-07-09T13:27:51;98630.66;;;40.50;16.27
141;BME280;65;48.778;9.160;2023-07-09T13:30:37;98631.66;;;40.90;15.87
141;BME280;65;48.778;9.160;2023-07-09T13:33:23;98643.38;;;40.61;15.89
141;BME280;65;48.778;9.160;2023-07-09T13:36:10;98633.34;;;39.64;16.23
141;BME280;65;48.778;9.160;2023-07-09T13:38:56;98621.75;;;39.82;16.01
141;BME280;65;48.778;9.160;2023-07-09T13:41:46;98627.03;;;40.39;15.82
141;BME280;65;48.778;9.160;2023-07-09T13:44:32;98622.03;;;40.57;15.26
141;BME280;65;48.778;9.160;2023-07-09T13:47:18;98628.16;;;40.08;15.59
141;BME280;65;48.778;9.160;2023-07-09T13:50:04;98624.28;;;39.94;16.21
141;BME280;65;48.778;9.160;2023-07-09T13:52:50;98625.63;;;39.76;16.38
141;BME280;65;48.778;9.160;2023-07-09T13:55:36;98625.66;;;40.27;15.56
141;BME280;65;48.778;9.160;2023-07-09T13:58:24;98624.34;;;38.64;17.41
141;BME280;65;48.778;9.160;2023-07-09T14:01:14;98615.38;;;39.61;17.33
141;BME280;65;48.778;9.160;2023-07-09T14:04:00;98609.84;;;40.27;16.73
141;BME280;65;48.778;9.160;2023-07-09T14:06:46;98612.34;;;40.54;17.01
141;BME280;65;48.778;9.160;2023-07-09T14:09:31;98614.25;;;39.52;17.36
141;BME280;65;48.778;9.160;2023-07-09T14:12:17;98608.19;;;40.46;16.42
141;BME280;65;48.778;9.160;2023-07-09T14:15:11;98599.88;;;39.70;17.11
141;BME280;65;48.778;9.160;2023-07-09T14:17:57;98605.16;;;40.18;17.24
141;BME280;65;48.778;9.160;2023-07-09T14:20:44;98599.31;;;39.58;17.12
141;BME280;65;48.778;9.160;2023-07-09T14:23:30;98601.13;;;39.27;18.12
141;BME280;65;48.778;9.160;2023-07-09T14:26:16;98608.34;;;38.71;18.52
141;BME280;65;48.778;9.160;2023-07-09T14:29:01;98589.47;;;39.05;17.82
141;BME280;65;48.778;9.160;2023-07-09T14:31:48;98585.94;;;39.30;17.99
141;BME280;65;48.778;9.160;2023-07-09T14:34:34;98572.19;;;39.50;17.84
141;BME280;65;48.778;9.160;2023-07-09T14:37:19;98572.47;;;39.84;17.47
141;BME280;65;48.778;9.160;2023-07-09T14:40:06;98568.91;;;39.94;17.22
141;BME280;65;48.778;9.160;2023-07-09T14:42:51;98575.09;;;38.55;18.77
141;BME280;65;48.778;9.160;2023-07-09T14:45:38;98581.84;;;38.27;18.65
141;BME280;65;48.778;9.160;2023-07-09T14:48:23;98578.53;;;38.25;18.41
141;BME280;65;48.778;9.160;2023-07-09T14:51:14;98576.56;;;38.21;18.20
141;BME280;65;48.778;9.160;2023-07-09T14:54:01;98577.50;;;38.94;17.55
141;BME280;65;48.778;9.160;2023-07-09T14:56:48;98562.00;;;38.88;17.41
141;BME280;65;48.778;9.160;2023-07-09T14:59:34;98560.28;;;38.72;18.66
141;BME280;65;48.778;9.160;2023-07-09T15:05:24;98559.16;;;38.73;17.62
141;BME280;65;48.778;9.160;2023-07-09T15:08:16;98563.13;;;38.92;17.28
141;BME280;65;48.778;9.160;2023-07-09T15:11:02;98562.09;;;38.51;18.13
141;BME280;65;48.778;9.160;2023-07-09T15:13:48;98570.03;;;38.37;18.24
141;BME280;65;48.778;9.160;2023-07-09T15:16:34;98569.53;;;38.45;18.02
141;BME280;65;48.778;9.160;2023-07-09T15:19:20;98569.78;;;38.07;18.10
141;BME280;65;48.778;9.160;2023-07-09T15:22:27;98567.41;;;37.83;18.58
141;BME280;65;48.778;9.160;2023-07-09T15:25:21;98569.41;;;37.61;19.34
141;BME280;65;48.778;9.160;2023-07-09T15:28:10;98558.03;;;37.25;19.02
141;BME280;65;48.778;9.160;2023-07-09T15:30:56;98557.97;;;36.98;18.70
141;BME280;65;48.778;9.160;2023-07-09T15:33:42;98562.53;;;36.88;19.61
141;BME280;65;48.778;9.160;2023-07-09T15:36:28;98561.63;;;36.60;20.29
141;BME280;65;48.778;9.160;2023-07-09T15:43:04;98552.25;;;36.61;19.50
141;BME280;65;48.778;9.160;2023-07-09T15:45:52;98563.03;;;36.85;19.24
141;BME280;65;48.778;9.160;2023-07-09T15:48:39;98551.03;;;36.74;20.14
141;BME280;65;48.778;9.160;2023-07-09T15:51:25;98553.09;;;37.05;19.42
141;BME280;65;48.778;9.160;2023-07-09T15:54:16;98559.50;;;36.89;18.87
141;BME280;65;48.778;9.160;2023-07-09T15:57:03;98553.34;;;37.04;20.15
141;BME280;65;48.778;9.160;2023-07-09T15:59:49;98548.53;;;37.16;19.25
141;BME280;65;48.778;9.160;2023-07-09T16:02:35;98545.19;;;37.14;19.43
141;BME280;65;48.778;9.160;2023-07-09T16:05:27;98557.19;;;37.25;18.99
141;BME280;65;48.778;9.160;2023-07-09T16:08:13;98553.72;;;37.13;19.45
141;BME280;65;48.778;9.160;2023-07-09T16:10:59;98550.41;;;37.11;19.70
141;BME280;65;48.778;9.160;2023-07-09T16:13:45;98549.56;;;37.10;18.91
141;BME280;65;48.778;9.160;2023-07-09T16:16:31;98556.81;;;36.72;19.43
141;BME280;65;48.778;9.160;2023-07-09T16:19:19;98558.97;;;36.70;19.58
141;BME280;65;48.778;9.160;2023-07-09T16:22:06;98560.59;;;36.66;19.26
141;BME280;65;48.778;9.160;2023-07-09T16:24:52;98557.72;;;36.56;19.02
141;BME280;65;48.778;9.160;2023-07-09T16:27:38;98551.25;;;36.29;19.89
141;BME280;65;48.778;9.160;2023-07-09T16:30:26;98558.19;;;36.31;20.10
141;BME280;65;48.778;9.160;2023-07-09T16:33:14;98551.84;;;36.31;21.21
141;BME280;65;48.778;9.160;2023-07-09T16:36:00;98554.53;;;36.09;20.70
141;BME280;65;48.778;9.160;2023-07-09T16:38:49;98545.34;;;36.03;20.31
141;BME280;65;48.778;9.160;2023-07-09T16:41:35;98544.66;;;35.79;20.42
141;BME280;65;48.778;9.160;2023-07-09T16:44:21;98543.34;;;35.82;20.05
141;BME280;65;48.778;9.160;2023-07-09T16:47:18;98542.41;;;35.76;21.35
141;BME280;65;48.778;9.160;2023-07-09T16:50:05;98541.41;;;35.66;22.38